createdAt,value
2022-11-10T00:03:17.401Z,18.6
2022-11-10T00:08:39.796Z,18.6
2022-11-10T00:14:02.120Z,18.6
2022-11-10T00:19:08.533Z,18.6
2022-11-10T00:24:30.589Z,18.6
2022-11-10T00:29:52.439Z,18.6
2022-11-10T00:35:14.446Z,18.6
2022-11-10T00:40:21.188Z,18.5
2022-11-10T00:45:43.311Z,18.5
2022-11-10T00:51:04.846Z,18.5
2022-11-10T00:56:10.128Z,18.6
2022-11-10T01:01:17.220Z,18.6
2022-11-10T01:06:39.072Z,18.6
2022-11-10T01:12:01.054Z,18.6
2022-11-10T01:17:25.693Z,18.6
2022-11-10T01:22:48.083Z,18.5
2022-11-10T01:28:09.998Z,18.5
2022-11-10T01:33:01.189Z,18.5
2022-11-10T01:38:07.594Z,18.5
2022-11-10T01:43:29.233Z,18.5
2022-11-10T01:48:51.410Z,18.5
2022-11-10T01:54:13.349Z,18.5
2022-11-10T01:59:50.132Z,18.5
2022-11-10T02:04:57.173Z,18.4
2022-11-10T02:10:33.994Z,18.5
2022-11-10T02:15:40.380Z,18.5
2022-11-10T02:21:17.527Z,18.5
2022-11-10T02:26:54.294Z,18.5
2022-11-10T02:32:32.128Z,18.5
2022-11-10T02:37:53.171Z,18.4
2022-11-10T02:43:14.485Z,18.4
2022-11-10T02:48:36.048Z,18.4
2022-11-10T02:54:13.408Z,18.5
2022-11-10T02:59:34.713Z,18.4
2022-11-10T03:05:02.532Z,18.4
2022-11-10T03:10:40.461Z,18.5
2022-11-10T03:16:38.744Z,18.5
2022-11-10T03:22:16.345Z,18.4
2022-11-10T03:27:53.727Z,18.5
2022-11-10T03:33:30.801Z,18.4
2022-11-10T03:38:56.640Z,18.4
2022-11-10T03:44:33.355Z,18.4
2022-11-10T03:50:16.503Z,18.4
2022-11-10T03:55:38.113Z,18.4
2022-11-10T04:00:44.242Z,18.4
2022-11-10T04:05:51.135Z,18.4
2022-11-10T04:10:57.920Z,18.4
2022-11-10T04:16:20.410Z,18.4
2022-11-10T04:21:41.686Z,18.4
2022-11-10T04:27:03.307Z,18.4
2022-11-10T04:31:54.445Z,18.4
2022-11-10T04:37:16.940Z,18.4
2022-11-10T04:42:38.323Z,18.5
2022-11-10T04:48:01.387Z,18.4
2022-11-10T04:53:23.843Z,18.4
2022-11-10T04:58:46.065Z,18.4
2022-11-10T05:03:53.739Z,18.4
2022-11-10T05:09:15.787Z,18.4
2022-11-10T05:14:06.607Z,18.4
2022-11-10T05:19:28.815Z,18.4
2022-11-10T05:24:35.728Z,18.4
2022-11-10T05:29:57.031Z,18.4
2022-11-10T05:35:34.989Z,18.4
2022-11-10T05:41:14.519Z,18.4
2022-11-10T05:46:35.614Z,18.4
2022-11-10T05:52:14.013Z,18.4
2022-11-10T05:57:52.044Z,18.4
2022-11-10T06:03:29.563Z,18.4
2022-11-10T06:09:08.227Z,18.4
2022-11-10T06:14:45.516Z,18.4
2022-11-10T06:20:23.043Z,18.4
2022-11-10T06:26:08.588Z,18.4
2022-11-10T06:31:46.300Z,18.3
2022-11-10T06:37:30.457Z,18.4
2022-11-10T06:43:08.123Z,18.4
2022-11-10T06:48:46.407Z,18.4
2022-11-10T06:54:23.849Z,18.3
2022-11-10T07:00:01.790Z,18.4
2022-11-10T07:06:15.207Z,18.4
2022-11-10T07:11:52.950Z,18.3
2022-11-10T07:17:15.977Z,18.3
2022-11-10T07:23:00.112Z,18.3
2022-11-10T07:28:42.401Z,18.3
2022-11-10T07:34:26.012Z,18.3
2022-11-10T07:40:02.923Z,18.3
2022-11-10T07:45:44.995Z,18.3
2022-11-10T07:51:22.663Z,18.3
2022-11-10T07:57:00.702Z,18.3
2022-11-10T08:02:42.539Z,18.2
2022-11-10T08:08:21.611Z,18.2
2022-11-10T08:13:43.767Z,18.2
2022-11-10T08:19:25.201Z,18.3
2022-11-10T08:25:03.848Z,18.2
2022-11-10T08:30:42.350Z,18.3
2022-11-10T08:36:27.186Z,18.3
2022-11-10T08:42:24.993Z,18.3
2022-11-10T08:48:03.934Z,18.3
2022-11-10T08:53:42.472Z,18.3
2022-11-10T08:59:25.788Z,18.3
2022-11-10T09:05:04.773Z,18.3
2022-11-10T09:10:56.727Z,18.3
2022-11-10T09:16:20.840Z,18.3
2022-11-10T09:22:05.731Z,18.3
2022-11-10T09:27:34.738Z,18.3
2022-11-10T09:33:20.454Z,18.4
2022-11-10T09:39:02.214Z,18.4
2022-11-10T09:44:43.995Z,18.4
2022-11-10T09:50:54.484Z,18.4
2022-11-10T09:56:32.505Z,18.4
2022-11-10T10:02:14.534Z,18.4
2022-11-10T10:08:21.043Z,18.4
2022-11-10T10:13:59.563Z,18.4
2022-11-10T10:19:40.652Z,18.4
2022-11-10T10:26:00.272Z,18.4
2022-11-10T10:31:37.847Z,18.4
2022-11-10T10:37:20.895Z,18.4
2022-11-10T10:43:03.603Z,18.4
2022-11-10T10:48:47.870Z,18.5
2022-11-10T10:54:51.222Z,18.4
2022-11-10T11:00:13.328Z,18.4
2022-11-10T11:05:52.133Z,18.5
2022-11-10T11:11:30.683Z,18.5
2022-11-10T11:17:14.841Z,18.4
2022-11-10T11:22:39.080Z,18.5
2022-11-10T11:28:17.314Z,18.5
2022-11-10T11:33:57.469Z,18.5
2022-11-10T11:39:40.553Z,18.5
2022-11-10T11:45:20.649Z,18.5
2022-11-10T11:50:59.119Z,18.6
2022-11-10T11:56:21.412Z,18.6
2022-11-10T12:01:17.547Z,18.6
2022-11-10T12:06:29.350Z,18.6
2022-11-10T12:11:37.061Z,18.6
2022-11-10T12:16:44.403Z,18.6
2022-11-10T12:22:11.763Z,18.6
2022-11-10T12:27:18.896Z,18.6
2022-11-10T12:32:41.897Z,18.6
2022-11-10T12:37:48.711Z,18.6
2022-11-10T12:48:03.024Z,18.6
2022-11-10T13:04:00.349Z,18.6
2022-11-10T13:09:28.235Z,18.6
2022-11-10T13:14:50.345Z,18.8
2022-11-10T13:36:10.973Z,18.8
2022-11-10T13:47:13.481Z,18.8
2022-11-10T13:52:51.650Z,18.8
2022-11-10T13:58:19.565Z,18.8
2022-11-10T14:03:57.431Z,18.8
2022-11-10T14:09:36.217Z,18.8
2022-11-10T14:14:58.693Z,18.8
2022-11-10T14:20:37.717Z,18.8
2022-11-10T14:26:21.049Z,18.8
2022-11-10T14:32:06.292Z,18.8
2022-11-10T14:37:45.721Z,18.8
2022-11-10T14:43:24.504Z,18.8
2022-11-10T14:49:02.608Z,18.8
2022-11-10T14:54:41.748Z,18.9
2022-11-10T15:00:22.299Z,18.8
2022-11-10T15:06:01.120Z,18.8
2022-11-10T15:11:47.101Z,18.8
2022-11-10T15:17:26.291Z,18.8
2022-11-10T15:23:03.811Z,18.8
2022-11-10T15:28:43.234Z,18.8
2022-11-10T15:34:26.005Z,18.8
2022-11-10T15:39:49.680Z,18.8
2022-11-10T15:45:20.459Z,18.8
2022-11-10T15:51:01.653Z,18.8
2022-11-10T15:56:45.816Z,18.8
2022-11-10T16:02:08.476Z,18.8
2022-11-10T16:07:31.223Z,18.8
2022-11-10T16:13:10.118Z,18.8
2022-11-10T16:18:33.365Z,18.8
2022-11-10T16:24:12.129Z,18.8
2022-11-10T16:39:54.187Z,18.8
2022-11-10T16:45:16.938Z,18.8
2022-11-10T17:01:01.044Z,18.8
2022-11-10T17:11:51.776Z,18.8
2022-11-10T17:38:28.336Z,18.6
2022-11-10T17:49:02.848Z,18.6
2022-11-10T17:59:22.511Z,18.6
2022-11-10T18:04:18.474Z,22.4
2022-11-10T18:09:42.267Z,32.9
2022-11-10T18:15:20.995Z,36
2022-11-10T18:21:03.029Z,37.3
2022-11-10T18:26:26.371Z,38.1
2022-11-10T18:32:04.352Z,38.9
2022-11-10T18:37:27.238Z,38.1
2022-11-10T18:43:07.620Z,36.9
2022-11-10T18:48:52.730Z,36.2
2022-11-10T18:54:31.204Z,34.6
2022-11-10T19:00:16.029Z,36.4
2022-11-10T19:05:43.261Z,36.8
2022-11-10T19:11:21.868Z,37.1
2022-11-10T19:16:45.736Z,37.3
2022-11-10T19:22:27.269Z,37.8
2022-11-10T19:28:32.702Z,37.3
2022-11-10T19:34:11.645Z,35.6
2022-11-10T19:39:34.585Z,35.9
2022-11-10T19:45:12.421Z,34.3
2022-11-10T19:50:52.296Z,35
2022-11-10T19:56:31.830Z,33.9
2022-11-10T20:02:13.332Z,34.1
2022-11-10T20:07:52.620Z,35.1
2022-11-10T20:13:32.050Z,33.8
2022-11-10T20:19:15.906Z,36.8
2022-11-10T20:24:48.417Z,37.3
2022-11-10T20:30:29.065Z,37.1
2022-11-10T20:36:07.610Z,36.8
2022-11-10T20:42:06.895Z,37.1
2022-11-10T20:48:03.517Z,34.8
2022-11-10T20:53:29.379Z,35.6
2022-11-10T20:59:33.092Z,33.8
2022-11-10T21:04:59.827Z,33.3
2022-11-10T21:10:38.151Z,32.9
2022-11-10T21:16:16.835Z,32.3
2022-11-10T21:21:38.454Z,31.3
2022-11-10T21:27:01.627Z,30.4
2022-11-10T21:32:28.188Z,29.8
2022-11-10T21:38:08.534Z,29.3
2022-11-10T21:43:47.436Z,28.8
2022-11-10T21:49:10.855Z,28.3
2022-11-10T21:54:48.109Z,27.8
2022-11-10T22:00:26.763Z,27.2
2022-11-10T22:06:05.393Z,26.8
2022-11-10T22:11:42.421Z,26.5
2022-11-10T22:17:05.628Z,26.3
2022-11-10T22:22:33.701Z,26.1
2022-11-10T22:28:11.985Z,25.9
2022-11-10T22:33:39.356Z,25.8
2022-11-10T22:39:03.742Z,25.5
2022-11-10T22:43:55.607Z,25.3
2022-11-10T22:49:17.818Z,25.1
2022-11-10T22:54:24.817Z,25.8
2022-11-10T23:00:07.089Z,25.3
2022-11-10T23:05:13.970Z,25.1
2022-11-10T23:10:56.602Z,33.3
2022-11-10T23:16:34.466Z,35.7
2022-11-10T23:22:00.461Z,35.1
2022-11-10T23:27:44.593Z,35.6
2022-11-10T23:33:22.359Z,33.9
2022-11-10T23:39:00.413Z,34.1
2022-11-10T23:44:22.540Z,32.8
2022-11-10T23:50:22.070Z,32.4
2022-11-10T23:55:28.923Z,31.9
